Terminal Aerodrome Forecast
Issued by NWS

Home | Current Version | Previous Version | Text Only | Print | Product List | Glossary On
Versions: 1 2 3 4 5 6 7 8 9 10 11 12 13 14 15 16 17 18 19 20 21 22
000
FTUS43 KEAX 232300
TAFSTJ
TAF
KSTJ 232323Z 2400/2424 08010KT P6SM OVC120
     FM240500 08013KT 5SM -TSRA SCT020 OVC050CB
     FM240700 08012KT 5SM -RA VCTS OVC025CB
     FM241000 09013KT 5SM -RA BR OVC015
     FM241500 13015G22KT 5SM BR OVC009=

USA.gov is the U.S. government's official web portal to all federal, state and local government web resources and services.